LTAT/MLX METAR and TAF weather

Enter ICAO airport designator
Station Type Date Time Source
LTAT METAR 2023/02/04 02:20 UTC NOAA

LTAT 040220Z 31003KT 9999 -SN BKN037 OVC090 M02/M05 Q1019 NOSIG


Station Type Date Time Source
LTAT Decoded METAR 2023/02/04 02:20 UTC NOAA

Malatya / Erhac, Turkey (LTAT) 38-26N 038-05E 849M
Feb 03, 2023 - 09:20 PM EST / 2023.02.04 0220 UTC
Wind: from the NW (310 degrees) at 3 MPH (3 KT):0
Visibility: greater than 7 mile(s):0
Sky conditions: overcast
Weather: light snow
Temperature: 28 F (-2 C)
Dew Point: 23 F (-5 C)
Relative Humidity: 79%
Pressure (altimeter): 30.09 in. Hg (1019 hPa)
ob: LTAT 040220Z 31003KT 9999 -SN BKN037 OVC090 M02/M05 Q1019 NOSIG
cycle: 2

Station Type Date Time Source
LTAT TAF 2023/02/03 18:03 UTC NOAA

TAF LTAT 031640Z 0318/0418 VRB02KT 9999 FEW040 SCT100 BKN200
BECMG 0323/0401 SCT010 BKN035 OVC090 PROB30 0401/0405 3500 BR PROB40 0405/0409 2500 -SN BR OVC008
BECMG 0409/0411 4000 -SN BR BKN007 OVC012 PROB30 0411/0415 2000

Example: see airport list